Terminal Aerodrome Forecast
Issued by NWS

Home | Current Version | Previous Version | Text Only | Print | Product List | Glossary Off
Versions: 1 2 3 4 5 6 7 8 9 10 11 12 13 14 15 16 17 18 19 20

000
FTUS43 KGRB 250700 AAA
TAFCWA
TAF AMD
KCWA 250719Z 2507/2606 29010KT 5SM -SN SCT015 OVC025
      TEMPO 2507/2510 2SM -SN BKN015
     FM251000 30007KT P6SM OVC020
     FM251500 28007KT P6SM BKN025 BKN100
     FM251900 27007KT P6SM FEW030 SCT100
     FM252300 23003KT P6SM FEW100
      AMD LTD TO CLD VIS AND WIND TIL 251200=

USA.gov is the U.S. government's official web portal to all federal, state and local government web resources and services.